Flight Track Log - Related Links

Times and Time Zones

All times are in EDT time to prevent confusion due to time zone crossing. See the DAL1990 flight status page for this flight to view local times or setup timezone preferences in your user account.

Time Position Orientation Groundspeed Altitude Reporting Facility
EDT Latitude Longitude Course Direction KTS MPH feet Rate Location/Type
Mon 12:19:46 PM 32.1653 -81.3267 302° West 206 237 4,100  Level Jacksonville Center
Mon 12:20:46 PM 32.1994 -81.3925 302° West 229 264 6,100 2,250 Climbing Jacksonville Center
Mon 12:21:46 PM 32.2336 -81.4583 291° West 235 270 8,600 2,400 Climbing Jacksonville Center
Mon 12:22:46 PM 32.2553 -81.5267 278° West 241 277 10,900 1,750 Climbing Jacksonville Center
Mon 12:23:46 PM 32.2667 -81.6272 276° West 269 310 12,100 3,581 Climbing Jacksonville Center
Mon 12:25:52 PM 32.2842 -81.8325 270° West 308 354 22,000 2,000 Climbing Atlanta Center
Mon 12:26:52 PM 32.2839 -81.9383 281° West 320 368 18,300 -900 Descending Atlanta Center
Mon 12:27:52 PM 32.3003 -82.0411 288° West 320 368 20,200 1,650 Climbing Atlanta Center
Mon 12:28:52 PM 32.3289 -82.1436 285° West 325 374 21,600 900 Climbing Atlanta Center
Mon 12:29:52 PM 32.3536 -82.2539 286° West 338 389 22,000 200 Climbing Atlanta Center
Mon 12:30:52 PM 32.3825 -82.3736 290° West 358 412 22,000  Level Atlanta Center
Mon 12:31:52 PM 32.4172 -82.4886 296° West 363 418 22,000  Level Atlanta Center
Mon 12:32:52 PM 32.4667 -82.6108 305° West 374 430 22,000  Level Atlanta Center
Mon 12:33:52 PM 32.5264 -82.7108 299° West 374 430 22,000  Level Atlanta Center
Mon 12:34:52 PM 32.5775 -82.8211 302° West 374 430 22,000  Level Atlanta Center
Mon 12:35:52 PM 32.6308 -82.9239 304° West 374 430 22,000  Level Atlanta Center
Mon 12:36:52 PM 32.6881 -83.0244 314° West 379 436 22,000  Level Atlanta Center
Mon 12:37:52 PM 32.7639 -83.1175 312° West 379 436 22,000  Level Atlanta Center
Mon 12:38:52 PM 32.8292 -83.2033 308° West 373 429 22,000 -150 Level Atlanta Center
Mon 12:39:52 PM 32.8967 -83.3067 311° West 379 436 21,700 -1,200 Descending Atlanta Center
Mon 12:40:52 PM 32.9661 -83.4025 312° West 379 436 19,600 -2,250 Descending Atlanta Center
Mon 12:41:52 PM 33.0269 -83.4839 303° West 358 412 17,200 -2,200 Descending Atlanta Center
Mon 12:42:52 PM 33.0711 -83.5653 313° West 336 387 15,200 -2,050 Descending Atlanta Center
Mon 12:43:52 PM 33.1339 -83.6469 304° West 326 375 13,100 -1,563 Descending Atlanta Center
Mon 12:44:51 PM 33.1833 -83.7333 306° West 301 346 12,100 -555 Descending Atlanta TRACON
Mon 12:45:51 PM 33.2333 -83.8167 301° West 298 343 12,000 -450 Descending Atlanta TRACON
Mon 12:46:51 PM 33.2667 -83.8833 301° West 258 297 11,200 -1,263 Descending Atlanta TRACON
Mon 12:47:45 PM 33.3000 -83.9500 312° West 256 295 9,600 -1,474 Descending Atlanta TRACON
Mon 12:48:45 PM 33.3500 -84.0167 331° Northwest 243 280 8,400 -850 Descending Atlanta TRACON
Mon 12:49:45 PM 33.4000 -84.0500 331° Northwest 236 272 7,900 -1,250 Descending Atlanta TRACON
Mon 12:50:45 PM 33.4500 -84.0833 328° Northwest 235 270 5,900 -1,700 Descending Atlanta TRACON
Mon 12:51:45 PM 33.5167 -84.1333 320° Northwest 237 273 4,500 -1,158 Descending Atlanta TRACON
Mon 12:52:39 PM 33.5500 -84.1667 312° West 222 255 3,700 -550 Descending Atlanta TRACON
Mon 12:53:45 PM 33.6000 -84.2333 292° West 220 253 3,400 -190 Descending Atlanta TRACON
Mon 12:54:45 PM 33.6167 -84.2833 270° West 168 193 3,300 -579 Descending Atlanta TRACON
Mon 12:55:39 PM 33.6167 -84.3333 270° West 172 198 2,300 -947 Descending Atlanta TRACON
Mon 12:56:39 PM 33.6167 -84.3833 270° West 137 158 1,500 -800 Descending Atlanta TRACON

Login

Don't have an account? Register now (free) for customized features, flight alerts, and more!